sensor_id;sensor_type;location;lat;lon;timestamp;P1;durP1;ratioP1;P2;durP2;ratioP2
12968;SDS011;6549;53.128;8.182;2024-03-22T00:01:40;27.27;;;15.55;;
12968;SDS011;6549;53.128;8.182;2024-03-22T00:04:40;29.02;;;17.27;;
12968;SDS011;6549;53.128;8.182;2024-03-22T00:07:41;31.25;;;17.27;;
12968;SDS011;6549;53.128;8.182;2024-03-22T00:10:41;28.48;;;17.10;;
12968;SDS011;6549;53.128;8.182;2024-03-22T00:13:41;30.30;;;17.42;;
12968;SDS011;6549;53.128;8.182;2024-03-22T00:16:42;28.88;;;18.08;;
12968;SDS011;6549;53.128;8.182;2024-03-22T00:19:42;33.33;;;18.65;;
12968;SDS011;6549;53.128;8.182;2024-03-22T00:22:42;32.10;;;18.70;;
12968;SDS011;6549;53.128;8.182;2024-03-22T00:25:43;32.45;;;19.02;;
12968;SDS011;6549;53.128;8.182;2024-03-22T00:28:43;32.20;;;19.23;;
12968;SDS011;6549;53.128;8.182;2024-03-22T00:31:43;29.98;;;18.80;;
12968;SDS011;6549;53.128;8.182;2024-03-22T00:34:44;30.77;;;18.90;;
12968;SDS011;6549;53.128;8.182;2024-03-22T00:37:45;33.80;;;18.98;;
12968;SDS011;6549;53.128;8.182;2024-03-22T00:40:45;32.03;;;19.73;;
12968;SDS011;6549;53.128;8.182;2024-03-22T00:43:46;32.78;;;19.45;;
12968;SDS011;6549;53.128;8.182;2024-03-22T00:46:46;34.38;;;19.98;;
12968;SDS011;6549;53.128;8.182;2024-03-22T00:49:46;32.28;;;19.65;;
12968;SDS011;6549;53.128;8.182;2024-03-22T00:52:47;32.08;;;19.60;;
12968;SDS011;6549;53.128;8.182;2024-03-22T00:55:47;35.47;;;20.50;;
12968;SDS011;6549;53.128;8.182;2024-03-22T00:58:51;34.95;;;20.70;;
12968;SDS011;6549;53.128;8.182;2024-03-22T01:01:52;37.70;;;20.98;;
12968;SDS011;6549;53.128;8.182;2024-03-22T01:04:52;37.85;;;21.25;;
12968;SDS011;6549;53.128;8.182;2024-03-22T01:07:52;35.53;;;21.73;;
12968;SDS011;6549;53.128;8.182;2024-03-22T01:10:53;37.30;;;21.67;;
12968;SDS011;6549;53.128;8.182;2024-03-22T01:13:53;38.65;;;21.70;;
12968;SDS011;6549;53.128;8.182;2024-03-22T01:16:53;36.95;;;21.90;;
12968;SDS011;6549;53.128;8.182;2024-03-22T01:19:55;36.75;;;20.70;;
12968;SDS011;6549;53.128;8.182;2024-03-22T01:22:55;37.55;;;21.10;;
12968;SDS011;6549;53.128;8.182;2024-03-22T01:25:55;39.17;;;21.67;;
12968;SDS011;6549;53.128;8.182;2024-03-22T01:28:56;40.92;;;22.90;;
12968;SDS011;6549;53.128;8.182;2024-03-22T01:31:57;41.70;;;22.83;;
12968;SDS011;6549;53.128;8.182;2024-03-22T01:34:58;43.30;;;23.83;;
12968;SDS011;6549;53.128;8.182;2024-03-22T01:37:58;41.85;;;23.08;;
12968;SDS011;6549;53.128;8.182;2024-03-22T01:40:58;43.38;;;23.58;;
12968;SDS011;6549;53.128;8.182;2024-03-22T01:43:59;43.95;;;24.83;;
12968;SDS011;6549;53.128;8.182;2024-03-22T01:46:59;44.78;;;24.45;;
12968;SDS011;6549;53.128;8.182;2024-03-22T01:50:00;46.30;;;24.20;;
12968;SDS011;6549;53.128;8.182;2024-03-22T01:53:01;46.10;;;26.25;;
12968;SDS011;6549;53.128;8.182;2024-03-22T01:56:01;48.03;;;26.10;;
12968;SDS011;6549;53.128;8.182;2024-03-22T01:59:02;45.78;;;25.20;;
12968;SDS011;6549;53.128;8.182;2024-03-22T02:02:03;47.33;;;25.83;;
12968;SDS011;6549;53.128;8.182;2024-03-22T02:05:15;49.00;;;27.40;;
12968;SDS011;6549;53.128;8.182;2024-03-22T02:08:19;49.63;;;27.08;;
12968;SDS011;6549;53.128;8.182;2024-03-22T02:11:19;50.85;;;25.77;;
12968;SDS011;6549;53.128;8.182;2024-03-22T02:14:20;48.60;;;27.35;;
12968;SDS011;6549;53.128;8.182;2024-03-22T02:17:21;53.10;;;26.95;;
12968;SDS011;6549;53.128;8.182;2024-03-22T02:20:21;48.67;;;25.65;;
12968;SDS011;6549;53.128;8.182;2024-03-22T02:23:32;48.08;;;26.05;;
12968;SDS011;6549;53.128;8.182;2024-03-22T02:26:36;51.08;;;26.90;;
12968;SDS011;6549;53.128;8.182;2024-03-22T02:29:36;52.40;;;27.73;;
12968;SDS011;6549;53.128;8.182;2024-03-22T02:32:37;47.33;;;26.90;;
12968;SDS011;6549;53.128;8.182;2024-03-22T02:35:39;50.60;;;26.40;;
12968;SDS011;6549;53.128;8.182;2024-03-22T02:38:39;51.78;;;26.77;;
12968;SDS011;6549;53.128;8.182;2024-03-22T02:41:40;50.47;;;26.83;;
12968;SDS011;6549;53.128;8.182;2024-03-22T02:44:40;54.47;;;28.17;;
12968;SDS011;6549;53.128;8.182;2024-03-22T02:47:42;57.08;;;28.55;;
12968;SDS011;6549;53.128;8.182;2024-03-22T02:50:43;52.35;;;26.20;;
12968;SDS011;6549;53.128;8.182;2024-03-22T02:53:43;54.50;;;28.55;;
12968;SDS011;6549;53.128;8.182;2024-03-22T02:56:43;54.90;;;28.77;;
12968;SDS011;6549;53.128;8.182;2024-03-22T02:59:44;57.35;;;28.88;;
12968;SDS011;6549;53.128;8.182;2024-03-22T03:02:45;54.30;;;27.92;;
12968;SDS011;6549;53.128;8.182;2024-03-22T03:05:46;56.67;;;28.40;;
12968;SDS011;6549;53.128;8.182;2024-03-22T03:08:46;57.03;;;29.05;;
12968;SDS011;6549;53.128;8.182;2024-03-22T03:11:46;52.40;;;27.45;;
12968;SDS011;6549;53.128;8.182;2024-03-22T03:14:47;54.70;;;27.48;;
12968;SDS011;6549;53.128;8.182;2024-03-22T03:17:47;57.97;;;28.58;;
12968;SDS011;6549;53.128;8.182;2024-03-22T03:20:47;60.42;;;30.15;;
12968;SDS011;6549;53.128;8.182;2024-03-22T03:23:48;55.22;;;27.75;;
12968;SDS011;6549;53.128;8.182;2024-03-22T03:26:48;51.95;;;27.73;;
12968;SDS011;6549;53.128;8.182;2024-03-22T03:29:48;55.33;;;28.90;;
12968;SDS011;6549;53.128;8.182;2024-03-22T03:32:49;54.03;;;28.02;;
12968;SDS011;6549;53.128;8.182;2024-03-22T03:35:49;58.25;;;29.27;;
12968;SDS011;6549;53.128;8.182;2024-03-22T03:38:49;58.45;;;29.33;;
12968;SDS011;6549;53.128;8.182;2024-03-22T03:41:49;58.72;;;29.45;;
12968;SDS011;6549;53.128;8.182;2024-03-22T03:44:50;53.42;;;28.23;;
12968;SDS011;6549;53.128;8.182;2024-03-22T03:47:50;58.88;;;28.30;;
12968;SDS011;6549;53.128;8.182;2024-03-22T03:50:53;54.72;;;28.05;;
12968;SDS011;6549;53.128;8.182;2024-03-22T03:53:54;54.63;;;27.85;;
12968;SDS011;6549;53.128;8.182;2024-03-22T03:56:55;52.95;;;27.63;;
12968;SDS011;6549;53.128;8.182;2024-03-22T03:59:57;56.47;;;29.80;;
12968;SDS011;6549;53.128;8.182;2024-03-22T04:02:57;59.15;;;30.02;;
12968;SDS011;6549;53.128;8.182;2024-03-22T04:05:57;58.05;;;28.75;;
12968;SDS011;6549;53.128;8.182;2024-03-22T04:08:58;57.45;;;28.98;;
12968;SDS011;6549;53.128;8.182;2024-03-22T04:11:59;56.50;;;28.65;;
12968;SDS011;6549;53.128;8.182;2024-03-22T04:14:59;59.08;;;29.80;;
12968;SDS011;6549;53.128;8.182;2024-03-22T04:18:00;55.67;;;28.65;;
12968;SDS011;6549;53.128;8.182;2024-03-22T04:21:00;55.22;;;28.15;;
12968;SDS011;6549;53.128;8.182;2024-03-22T04:24:01;59.70;;;29.20;;
12968;SDS011;6549;53.128;8.182;2024-03-22T04:27:01;51.58;;;27.60;;
12968;SDS011;6549;53.128;8.182;2024-03-22T04:30:02;55.50;;;29.02;;
12968;SDS011;6549;53.128;8.182;2024-03-22T04:33:03;59.03;;;29.17;;
12968;SDS011;6549;53.128;8.182;2024-03-22T04:36:03;59.13;;;29.35;;
12968;SDS011;6549;53.128;8.182;2024-03-22T04:39:04;57.78;;;28.70;;
12968;SDS011;6549;53.128;8.182;2024-03-22T04:42:05;59.42;;;28.52;;
12968;SDS011;6549;53.128;8.182;2024-03-22T04:45:05;55.80;;;28.00;;
12968;SDS011;6549;53.128;8.182;2024-03-22T04:48:06;57.20;;;29.63;;
12968;SDS011;6549;53.128;8.182;2024-03-22T04:51:07;54.13;;;28.02;;
12968;SDS011;6549;53.128;8.182;2024-03-22T04:54:07;57.63;;;28.20;;
12968;SDS011;6549;53.128;8.182;2024-03-22T04:57:07;61.42;;;30.73;;
12968;SDS011;6549;53.128;8.182;2024-03-22T05:00:08;60.88;;;29.63;;
12968;SDS011;6549;53.128;8.182;2024-03-22T05:03:09;60.40;;;29.02;;
12968;SDS011;6549;53.128;8.182;2024-03-22T05:06:09;57.80;;;29.40;;
12968;SDS011;6549;53.128;8.182;2024-03-22T05:09:09;62.85;;;29.80;;
12968;SDS011;6549;53.128;8.182;2024-03-22T05:12:10;54.85;;;28.63;;
12968;SDS011;6549;53.128;8.182;2024-03-22T05:15:10;59.55;;;29.42;;
12968;SDS011;6549;53.128;8.182;2024-03-22T05:18:10;54.95;;;28.95;;
12968;SDS011;6549;53.128;8.182;2024-03-22T05:21:11;55.85;;;28.90;;
12968;SDS011;6549;53.128;8.182;2024-03-22T05:24:11;57.05;;;29.30;;
12968;SDS011;6549;53.128;8.182;2024-03-22T05:27:11;58.40;;;29.63;;
12968;SDS011;6549;53.128;8.182;2024-03-22T05:30:13;58.42;;;29.48;;
12968;SDS011;6549;53.128;8.182;2024-03-22T05:33:13;58.45;;;29.88;;
12968;SDS011;6549;53.128;8.182;2024-03-22T05:36:13;58.70;;;30.13;;
12968;SDS011;6549;53.128;8.182;2024-03-22T05:39:14;59.33;;;29.95;;
12968;SDS011;6549;53.128;8.182;2024-03-22T05:42:14;59.10;;;29.58;;
12968;SDS011;6549;53.128;8.182;2024-03-22T05:45:15;56.45;;;29.88;;
12968;SDS011;6549;53.128;8.182;2024-03-22T05:48:15;60.70;;;28.33;;
12968;SDS011;6549;53.128;8.182;2024-03-22T05:51:16;59.67;;;28.92;;
12968;SDS011;6549;53.128;8.182;2024-03-22T05:54:16;59.92;;;29.77;;
12968;SDS011;6549;53.128;8.182;2024-03-22T05:57:17;55.42;;;28.20;;
12968;SDS011;6549;53.128;8.182;2024-03-22T06:00:17;56.60;;;28.33;;
12968;SDS011;6549;53.128;8.182;2024-03-22T06:03:18;58.05;;;29.00;;
12968;SDS011;6549;53.128;8.182;2024-03-22T06:06:18;62.38;;;30.55;;
12968;SDS011;6549;53.128;8.182;2024-03-22T06:09:18;59.90;;;29.80;;
12968;SDS011;6549;53.128;8.182;2024-03-22T06:12:24;57.88;;;30.02;;
12968;SDS011;6549;53.128;8.182;2024-03-22T06:15:24;56.63;;;28.35;;
12968;SDS011;6549;53.128;8.182;2024-03-22T06:18:25;63.05;;;29.65;;
12968;SDS011;6549;53.128;8.182;2024-03-22T06:21:25;55.88;;;29.90;;
12968;SDS011;6549;53.128;8.182;2024-03-22T06:24:26;62.60;;;30.73;;
12968;SDS011;6549;53.128;8.182;2024-03-22T06:27:27;61.67;;;30.63;;
12968;SDS011;6549;53.128;8.182;2024-03-22T06:30:27;66.28;;;31.88;;
12968;SDS011;6549;53.128;8.182;2024-03-22T06:33:27;66.10;;;31.42;;
12968;SDS011;6549;53.128;8.182;2024-03-22T06:36:28;64.28;;;30.60;;
12968;SDS011;6549;53.128;8.182;2024-03-22T06:39:30;60.35;;;30.92;;
12968;SDS011;6549;53.128;8.182;2024-03-22T06:42:30;60.35;;;29.70;;
12968;SDS011;6549;53.128;8.182;2024-03-22T06:45:30;58.38;;;28.15;;
12968;SDS011;6549;53.128;8.182;2024-03-22T06:48:31;61.75;;;29.45;;
12968;SDS011;6549;53.128;8.182;2024-03-22T06:51:31;64.22;;;30.77;;
12968;SDS011;6549;53.128;8.182;2024-03-22T06:54:31;62.92;;;30.77;;
12968;SDS011;6549;53.128;8.182;2024-03-22T06:57:32;67.50;;;32.65;;
12968;SDS011;6549;53.128;8.182;2024-03-22T07:00:34;65.82;;;31.33;;
12968;SDS011;6549;53.128;8.182;2024-03-22T07:03:34;61.65;;;30.92;;
12968;SDS011;6549;53.128;8.182;2024-03-22T07:06:34;68.90;;;32.30;;
12968;SDS011;6549;53.128;8.182;2024-03-22T07:09:35;65.80;;;31.30;;
12968;SDS011;6549;53.128;8.182;2024-03-22T07:12:35;67.47;;;32.35;;
12968;SDS011;6549;53.128;8.182;2024-03-22T07:15:36;71.20;;;32.60;;
12968;SDS011;6549;53.128;8.182;2024-03-22T07:18:36;64.88;;;32.38;;
12968;SDS011;6549;53.128;8.182;2024-03-22T07:21:36;69.43;;;32.75;;
12968;SDS011;6549;53.128;8.182;2024-03-22T07:24:37;69.28;;;32.00;;
12968;SDS011;6549;53.128;8.182;2024-03-22T07:27:37;67.32;;;32.17;;
12968;SDS011;6549;53.128;8.182;2024-03-22T07:30:37;62.13;;;30.90;;
12968;SDS011;6549;53.128;8.182;2024-03-22T07:33:38;72.60;;;32.08;;
12968;SDS011;6549;53.128;8.182;2024-03-22T07:36:39;69.53;;;32.50;;
12968;SDS011;6549;53.128;8.182;2024-03-22T07:39:39;69.28;;;32.50;;
12968;SDS011;6549;53.128;8.182;2024-03-22T07:42:40;71.55;;;32.40;;
12968;SDS011;6549;53.128;8.182;2024-03-22T07:45:40;71.60;;;32.65;;
12968;SDS011;6549;53.128;8.182;2024-03-22T07:48:40;64.68;;;31.58;;
12968;SDS011;6549;53.128;8.182;2024-03-22T07:51:41;65.97;;;32.58;;
12968;SDS011;6549;53.128;8.182;2024-03-22T07:54:41;67.60;;;32.60;;
12968;SDS011;6549;53.128;8.182;2024-03-22T07:57:42;64.25;;;30.38;;
12968;SDS011;6549;53.128;8.182;2024-03-22T08:00:42;60.90;;;30.95;;
12968;SDS011;6549;53.128;8.182;2024-03-22T08:03:42;60.88;;;30.13;;
12968;SDS011;6549;53.128;8.182;2024-03-22T08:06:43;66.00;;;30.35;;
12968;SDS011;6549;53.128;8.182;2024-03-22T08:09:43;61.40;;;30.63;;
12968;SDS011;6549;53.128;8.182;2024-03-22T08:12:43;64.60;;;30.17;;
12968;SDS011;6549;53.128;8.182;2024-03-22T08:15:44;60.72;;;29.20;;
12968;SDS011;6549;53.128;8.182;2024-03-22T08:18:46;59.27;;;28.77;;
12968;SDS011;6549;53.128;8.182;2024-03-22T08:21:46;55.45;;;27.33;;
12968;SDS011;6549;53.128;8.182;2024-03-22T08:24:47;56.03;;;28.30;;
12968;SDS011;6549;53.128;8.182;2024-03-22T08:27:48;54.08;;;27.30;;
12968;SDS011;6549;53.128;8.182;2024-03-22T08:30:48;55.35;;;26.63;;
12968;SDS011;6549;53.128;8.182;2024-03-22T08:33:48;47.22;;;24.92;;
12968;SDS011;6549;53.128;8.182;2024-03-22T08:36:49;50.08;;;26.45;;
12968;SDS011;6549;53.128;8.182;2024-03-22T08:39:49;50.15;;;25.75;;
12968;SDS011;6549;53.128;8.182;2024-03-22T08:42:50;54.47;;;25.80;;
12968;SDS011;6549;53.128;8.182;2024-03-22T08:45:50;47.90;;;24.55;;
12968;SDS011;6549;53.128;8.182;2024-03-22T08:48:50;48.67;;;24.52;;
12968;SDS011;6549;53.128;8.182;2024-03-22T08:51:51;46.78;;;24.65;;
12968;SDS011;6549;53.128;8.182;2024-03-22T08:54:52;43.88;;;23.75;;
12968;SDS011;6549;53.128;8.182;2024-03-22T08:57:53;44.65;;;23.70;;
12968;SDS011;6549;53.128;8.182;2024-03-22T09:00:53;46.28;;;23.70;;
12968;SDS011;6549;53.128;8.182;2024-03-22T09:03:53;43.33;;;22.42;;
12968;SDS011;6549;53.128;8.182;2024-03-22T09:06:54;43.28;;;23.30;;
12968;SDS011;6549;53.128;8.182;2024-03-22T09:09:54;48.03;;;22.45;;
12968;SDS011;6549;53.128;8.182;2024-03-22T09:12:54;40.70;;;21.73;;
12968;SDS011;6549;53.128;8.182;2024-03-22T09:15:56;41.78;;;21.35;;
12968;SDS011;6549;53.128;8.182;2024-03-22T09:18:59;37.50;;;19.88;;
12968;SDS011;6549;53.128;8.182;2024-03-22T09:22:00;39.75;;;20.20;;
12968;SDS011;6549;53.128;8.182;2024-03-22T09:25:00;38.90;;;21.55;;
12968;SDS011;6549;53.128;8.182;2024-03-22T09:28:00;36.42;;;19.88;;
12968;SDS011;6549;53.128;8.182;2024-03-22T09:31:04;41.80;;;21.13;;
12968;SDS011;6549;53.128;8.182;2024-03-22T09:34:05;37.63;;;19.95;;
12968;SDS011;6549;53.128;8.182;2024-03-22T09:37:06;38.50;;;20.15;;
12968;SDS011;6549;53.128;8.182;2024-03-22T09:40:06;38.17;;;19.70;;
12968;SDS011;6549;53.128;8.182;2024-03-22T09:43:07;39.03;;;20.40;;
12968;SDS011;6549;53.128;8.182;2024-03-22T09:46:10;39.45;;;19.55;;
12968;SDS011;6549;53.128;8.182;2024-03-22T09:49:13;35.03;;;18.65;;
12968;SDS011;6549;53.128;8.182;2024-03-22T09:52:14;36.08;;;19.30;;
12968;SDS011;6549;53.128;8.182;2024-03-22T09:55:15;41.97;;;20.00;;
12968;SDS011;6549;53.128;8.182;2024-03-22T09:58:15;40.25;;;19.00;;
12968;SDS011;6549;53.128;8.182;2024-03-22T10:01:19;37.20;;;20.13;;
12968;SDS011;6549;53.128;8.182;2024-03-22T10:04:19;39.40;;;20.17;;
12968;SDS011;6549;53.128;8.182;2024-03-22T10:07:20;32.30;;;18.45;;
12968;SDS011;6549;53.128;8.182;2024-03-22T10:10:20;37.05;;;19.25;;
12968;SDS011;6549;53.128;8.182;2024-03-22T10:13:21;34.97;;;18.50;;
12968;SDS011;6549;53.128;8.182;2024-03-22T10:16:21;30.42;;;17.08;;
12968;SDS011;6549;53.128;8.182;2024-03-22T10:19:22;31.25;;;15.50;;
12968;SDS011;6549;53.128;8.182;2024-03-22T10:22:23;31.15;;;16.73;;
12968;SDS011;6549;53.128;8.182;2024-03-22T10:25:28;26.60;;;14.90;;
12968;SDS011;6549;53.128;8.182;2024-03-22T10:28:29;28.15;;;15.10;;
12968;SDS011;6549;53.128;8.182;2024-03-22T10:31:29;29.42;;;15.63;;
12968;SDS011;6549;53.128;8.182;2024-03-22T10:34:30;26.48;;;14.65;;
12968;SDS011;6549;53.128;8.182;2024-03-22T10:40:33;25.35;;;14.15;;
12968;SDS011;6549;53.128;8.182;2024-03-22T10:43:35;26.58;;;14.50;;
12968;SDS011;6549;53.128;8.182;2024-03-22T10:46:35;25.88;;;14.48;;
12968;SDS011;6549;53.128;8.182;2024-03-22T10:49:36;24.05;;;13.70;;
12968;SDS011;6549;53.128;8.182;2024-03-22T10:52:39;25.67;;;14.48;;
12968;SDS011;6549;53.128;8.182;2024-03-22T10:55:52;26.98;;;14.98;;
12968;SDS011;6549;53.128;8.182;2024-03-22T10:58:54;25.98;;;13.80;;
12968;SDS011;6549;53.128;8.182;2024-03-22T11:02:02;24.35;;;13.73;;
12968;SDS011;6549;53.128;8.182;2024-03-22T11:05:03;21.80;;;13.20;;
12968;SDS011;6549;53.128;8.182;2024-03-22T11:08:05;24.70;;;13.40;;
12968;SDS011;6549;53.128;8.182;2024-03-22T11:11:11;21.30;;;12.48;;
12968;SDS011;6549;53.128;8.182;2024-03-22T11:14:12;19.35;;;11.55;;
12968;SDS011;6549;53.128;8.182;2024-03-22T11:17:12;20.88;;;11.40;;
12968;SDS011;6549;53.128;8.182;2024-03-22T11:20:13;21.38;;;11.60;;
12968;SDS011;6549;53.128;8.182;2024-03-22T11:23:13;18.63;;;11.68;;
12968;SDS011;6549;53.128;8.182;2024-03-22T11:26:13;20.25;;;11.32;;
12968;SDS011;6549;53.128;8.182;2024-03-22T11:29:14;19.15;;;11.20;;
12968;SDS011;6549;53.128;8.182;2024-03-22T11:32:14;19.15;;;11.52;;
12968;SDS011;6549;53.128;8.182;2024-03-22T11:35:15;17.77;;;11.23;;
12968;SDS011;6549;53.128;8.182;2024-03-22T11:38:15;19.73;;;11.27;;
12968;SDS011;6549;53.128;8.182;2024-03-22T11:41:17;18.08;;;9.93;;
12968;SDS011;6549;53.128;8.182;2024-03-22T11:44:21;18.02;;;10.32;;
12968;SDS011;6549;53.128;8.182;2024-03-22T11:47:23;16.43;;;9.90;;
12968;SDS011;6549;53.128;8.182;2024-03-22T11:50:23;16.95;;;10.10;;
12968;SDS011;6549;53.128;8.182;2024-03-22T11:53:23;14.45;;;9.50;;
12968;SDS011;6549;53.128;8.182;2024-03-22T11:56:24;12.95;;;7.75;;
12968;SDS011;6549;53.128;8.182;2024-03-22T11:59:25;12.65;;;8.30;;
12968;SDS011;6549;53.128;8.182;2024-03-22T12:02:25;13.93;;;7.82;;
12968;SDS011;6549;53.128;8.182;2024-03-22T12:05:26;11.38;;;7.38;;
12968;SDS011;6549;53.128;8.182;2024-03-22T12:08:26;12.70;;;7.80;;
12968;SDS011;6549;53.128;8.182;2024-03-22T12:11:26;11.32;;;6.80;;
12968;SDS011;6549;53.128;8.182;2024-03-22T12:14:27;9.55;;;5.97;;
12968;SDS011;6549;53.128;8.182;2024-03-22T12:17:27;9.93;;;6.13;;
12968;SDS011;6549;53.128;8.182;2024-03-22T12:20:27;9.35;;;6.10;;
12968;SDS011;6549;53.128;8.182;2024-03-22T12:23:28;10.48;;;5.75;;
12968;SDS011;6549;53.128;8.182;2024-03-22T12:26:28;8.30;;;5.57;;
12968;SDS011;6549;53.128;8.182;2024-03-22T12:29:29;8.80;;;5.20;;
12968;SDS011;6549;53.128;8.182;2024-03-22T12:32:32;8.30;;;5.20;;
12968;SDS011;6549;53.128;8.182;2024-03-22T12:35:32;7.50;;;4.85;;
12968;SDS011;6549;53.128;8.182;2024-03-22T12:38:34;7.00;;;4.50;;
12968;SDS011;6549;53.128;8.182;2024-03-22T12:41:34;6.57;;;4.25;;
12968;SDS011;6549;53.128;8.182;2024-03-22T12:44:35;6.68;;;4.20;;
12968;SDS011;6549;53.128;8.182;2024-03-22T12:47:35;6.45;;;3.90;;
12968;SDS011;6549;53.128;8.182;2024-03-22T12:50:36;7.07;;;3.80;;
12968;SDS011;6549;53.128;8.182;2024-03-22T12:53:36;6.18;;;3.80;;
12968;SDS011;6549;53.128;8.182;2024-03-22T12:56:37;4.93;;;3.50;;
12968;SDS011;6549;53.128;8.182;2024-03-22T12:59:39;5.13;;;3.57;;
12968;SDS011;6549;53.128;8.182;2024-03-22T13:02:39;5.63;;;3.50;;
12968;SDS011;6549;53.128;8.182;2024-03-22T13:05:40;5.85;;;3.58;;
12968;SDS011;6549;53.128;8.182;2024-03-22T13:08:40;5.28;;;3.40;;
12968;SDS011;6549;53.128;8.182;2024-03-22T13:11:41;5.03;;;3.30;;
12968;SDS011;6549;53.128;8.182;2024-03-22T13:14:41;4.63;;;2.92;;
12968;SDS011;6549;53.128;8.182;2024-03-22T13:17:44;5.03;;;3.20;;
12968;SDS011;6549;53.128;8.182;2024-03-22T13:20:46;4.15;;;2.80;;
12968;SDS011;6549;53.128;8.182;2024-03-22T13:26:47;3.70;;;2.40;;
12968;SDS011;6549;53.128;8.182;2024-03-22T13:29:47;3.80;;;2.58;;
12968;SDS011;6549;53.128;8.182;2024-03-22T13:32:48;4.18;;;2.50;;
12968;SDS011;6549;53.128;8.182;2024-03-22T13:35:48;3.15;;;2.28;;
12968;SDS011;6549;53.128;8.182;2024-03-22T13:38:48;4.45;;;2.88;;
12968;SDS011;6549;53.128;8.182;2024-03-22T13:41:49;3.00;;;2.00;;
12968;SDS011;6549;53.128;8.182;2024-03-22T13:44:49;3.05;;;2.17;;
12968;SDS011;6549;53.128;8.182;2024-03-22T13:47:49;2.20;;;1.75;;
12968;SDS011;6549;53.128;8.182;2024-03-22T13:50:50;2.72;;;1.90;;
12968;SDS011;6549;53.128;8.182;2024-03-22T13:53:51;2.75;;;1.80;;
12968;SDS011;6549;53.128;8.182;2024-03-22T13:56:51;2.40;;;1.80;;
12968;SDS011;6549;53.128;8.182;2024-03-22T13:59:52;1.67;;;1.58;;
12968;SDS011;6549;53.128;8.182;2024-03-22T14:02:53;2.17;;;1.60;;
12968;SDS011;6549;53.128;8.182;2024-03-22T14:05:55;1.60;;;1.50;;
12968;SDS011;6549;53.128;8.182;2024-03-22T14:08:55;2.05;;;1.67;;
12968;SDS011;6549;53.128;8.182;2024-03-22T14:12:00;1.73;;;1.63;;
12968;SDS011;6549;53.128;8.182;2024-03-22T14:15:00;1.77;;;1.42;;
12968;SDS011;6549;53.128;8.182;2024-03-22T14:18:01;1.60;;;1.50;;
12968;SDS011;6549;53.128;8.182;2024-03-22T14:21:03;4.07;;;1.47;;
12968;SDS011;6549;53.128;8.182;2024-03-22T14:24:03;2.38;;;1.90;;
12968;SDS011;6549;53.128;8.182;2024-03-22T14:27:04;4.45;;;1.75;;
12968;SDS011;6549;53.128;8.182;2024-03-22T14:30:05;5.38;;;1.70;;
12968;SDS011;6549;53.128;8.182;2024-03-22T14:33:07;6.35;;;2.08;;
12968;SDS011;6549;53.128;8.182;2024-03-22T14:36:07;6.10;;;2.08;;
12968;SDS011;6549;53.128;8.182;2024-03-22T14:39:08;9.05;;;2.33;;
12968;SDS011;6549;53.128;8.182;2024-03-22T14:42:09;7.53;;;2.75;;
12968;SDS011;6549;53.128;8.182;2024-03-22T14:45:09;6.65;;;2.63;;
12968;SDS011;6549;53.128;8.182;2024-03-22T14:48:09;7.45;;;2.78;;
12968;SDS011;6549;53.128;8.182;2024-03-22T14:51:10;4.88;;;2.78;;
12968;SDS011;6549;53.128;8.182;2024-03-22T14:54:10;8.00;;;3.17;;
12968;SDS011;6549;53.128;8.182;2024-03-22T14:57:10;6.00;;;3.08;;
12968;SDS011;6549;53.128;8.182;2024-03-22T15:00:11;7.20;;;3.08;;
12968;SDS011;6549;53.128;8.182;2024-03-22T15:03:12;7.40;;;3.10;;
12968;SDS011;6549;53.128;8.182;2024-03-22T15:06:13;7.95;;;3.25;;
12968;SDS011;6549;53.128;8.182;2024-03-22T15:09:13;7.40;;;3.10;;
12968;SDS011;6549;53.128;8.182;2024-03-22T15:12:13;6.43;;;3.30;;
12968;SDS011;6549;53.128;8.182;2024-03-22T15:15:14;7.68;;;3.60;;
12968;SDS011;6549;53.128;8.182;2024-03-22T15:18:14;6.68;;;3.42;;
12968;SDS011;6549;53.128;8.182;2024-03-22T15:21:14;9.85;;;3.60;;
12968;SDS011;6549;53.128;8.182;2024-03-22T15:24:15;6.30;;;3.58;;
12968;SDS011;6549;53.128;8.182;2024-03-22T15:27:16;9.30;;;3.35;;
12968;SDS011;6549;53.128;8.182;2024-03-22T15:30:16;8.75;;;3.67;;
12968;SDS011;6549;53.128;8.182;2024-03-22T15:33:16;7.28;;;3.45;;
12968;SDS011;6549;53.128;8.182;2024-03-22T15:36:17;7.47;;;3.53;;
12968;SDS011;6549;53.128;8.182;2024-03-22T15:39:17;10.93;;;3.95;;
12968;SDS011;6549;53.128;8.182;2024-03-22T15:42:18;7.55;;;3.70;;
12968;SDS011;6549;53.128;8.182;2024-03-22T15:45:18;8.65;;;4.63;;
12968;SDS011;6549;53.128;8.182;2024-03-22T15:48:19;10.35;;;4.22;;
12968;SDS011;6549;53.128;8.182;2024-03-22T15:51:24;7.03;;;4.03;;
12968;SDS011;6549;53.128;8.182;2024-03-22T15:54:24;8.50;;;4.20;;
12968;SDS011;6549;53.128;8.182;2024-03-22T15:57:24;7.82;;;3.70;;
12968;SDS011;6549;53.128;8.182;2024-03-22T16:00:26;10.00;;;4.10;;
12968;SDS011;6549;53.128;8.182;2024-03-22T16:03:28;7.40;;;4.22;;
12968;SDS011;6549;53.128;8.182;2024-03-22T16:06:28;7.30;;;3.65;;
12968;SDS011;6549;53.128;8.182;2024-03-22T16:09:28;9.55;;;4.55;;
12968;SDS011;6549;53.128;8.182;2024-03-22T16:12:29;11.07;;;4.72;;
12968;SDS011;6549;53.128;8.182;2024-03-22T16:15:29;10.68;;;5.55;;
12968;SDS011;6549;53.128;8.182;2024-03-22T16:18:29;12.75;;;4.18;;
12968;SDS011;6549;53.128;8.182;2024-03-22T16:21:30;9.57;;;4.10;;
12968;SDS011;6549;53.128;8.182;2024-03-22T16:24:30;9.95;;;3.70;;
12968;SDS011;6549;53.128;8.182;2024-03-22T16:27:31;10.88;;;4.15;;
12968;SDS011;6549;53.128;8.182;2024-03-22T16:30:32;9.02;;;4.00;;
12968;SDS011;6549;53.128;8.182;2024-03-22T16:33:33;10.20;;;4.85;;
12968;SDS011;6549;53.128;8.182;2024-03-22T16:36:33;9.13;;;4.40;;
12968;SDS011;6549;53.128;8.182;2024-03-22T16:39:34;12.90;;;4.15;;
12968;SDS011;6549;53.128;8.182;2024-03-22T16:42:47;16.42;;;4.32;;
12968;SDS011;6549;53.128;8.182;2024-03-22T16:45:48;14.75;;;4.63;;
12968;SDS011;6549;53.128;8.182;2024-03-22T16:48:48;9.15;;;3.72;;
12968;SDS011;6549;53.128;8.182;2024-03-22T16:51:49;15.55;;;4.47;;
12968;SDS011;6549;53.128;8.182;2024-03-22T16:54:49;17.40;;;4.43;;
12968;SDS011;6549;53.128;8.182;2024-03-22T16:57:50;15.85;;;4.68;;
12968;SDS011;6549;53.128;8.182;2024-03-22T17:00:52;17.88;;;4.38;;
12968;SDS011;6549;53.128;8.182;2024-03-22T17:03:53;13.60;;;4.50;;
12968;SDS011;6549;53.128;8.182;2024-03-22T17:06:53;15.32;;;3.80;;
12968;SDS011;6549;53.128;8.182;2024-03-22T17:09:54;19.48;;;4.38;;
12968;SDS011;6549;53.128;8.182;2024-03-22T17:12:54;21.00;;;4.85;;
12968;SDS011;6549;53.128;8.182;2024-03-22T17:15:55;15.63;;;4.15;;
12968;SDS011;6549;53.128;8.182;2024-03-22T17:18:56;16.00;;;4.20;;
12968;SDS011;6549;53.128;8.182;2024-03-22T17:21:56;26.58;;;4.57;;
12968;SDS011;6549;53.128;8.182;2024-03-22T17:24:56;18.33;;;4.85;;
12968;SDS011;6549;53.128;8.182;2024-03-22T17:27:57;19.00;;;4.43;;
12968;SDS011;6549;53.128;8.182;2024-03-22T17:30:57;13.82;;;4.40;;
12968;SDS011;6549;53.128;8.182;2024-03-22T17:33:59;16.73;;;3.63;;
12968;SDS011;6549;53.128;8.182;2024-03-22T17:37:00;17.73;;;3.95;;
12968;SDS011;6549;53.128;8.182;2024-03-22T17:40:02;18.45;;;4.50;;
12968;SDS011;6549;53.128;8.182;2024-03-22T17:43:05;18.33;;;4.28;;
12968;SDS011;6549;53.128;8.182;2024-03-22T17:46:06;18.35;;;4.30;;
12968;SDS011;6549;53.128;8.182;2024-03-22T17:49:06;22.73;;;5.15;;
12968;SDS011;6549;53.128;8.182;2024-03-22T17:52:07;16.67;;;3.70;;
12968;SDS011;6549;53.128;8.182;2024-03-22T17:55:07;19.50;;;3.63;;
12968;SDS011;6549;53.128;8.182;2024-03-22T17:58:07;19.55;;;3.90;;
12968;SDS011;6549;53.128;8.182;2024-03-22T18:01:08;16.90;;;4.15;;
12968;SDS011;6549;53.128;8.182;2024-03-22T18:04:08;18.95;;;4.18;;
12968;SDS011;6549;53.128;8.182;2024-03-22T18:07:08;18.83;;;3.85;;
12968;SDS011;6549;53.128;8.182;2024-03-22T18:10:09;20.10;;;4.13;;